Time;durP1;ratioP1;P1;durP2;ratioP2;P2;SDS_P1;SDS_P2;PMS_P1;PMS_P2;Temp;Humidity;BMP_temperature;BMP_pressure;BME280_temperature;BME280_humidity;BME280_pressure;Samples;Min_cycle;Max_cycle;Signal;HPM_P1;HPM_P2
2023/07/12 00:00:21;;;;;;;3.33;1.95;;;;;;;18.86;90.11;100774.31;5030866;28;20021;-81
2023/07/12 00:02:47;;;;;;;4.40;1.70;;;;;;;18.81;90.15;100772.13;5029528;28;20029;-80
2023/07/12 00:05:12;;;;;;;2.47;1.60;;;;;;;18.82;91.11;100770.31;5026308;28;20458;-72
2023/07/12 00:07:37;;;;;;;2.95;1.63;;;;;;;18.83;91.20;100777.31;5025907;28;20440;-73
2023/07/12 00:10:13;;;;;;;5.25;2.15;;;;;;;18.84;91.09;100773.66;5029736;28;20071;-81
2023/07/12 00:12:38;;;;;;;2.72;1.90;;;;;;;18.89;91.02;100771.28;5029964;28;20114;-81
2023/07/12 00:15:05;;;;;;;3.80;1.77;;;;;;;18.82;91.00;100791.66;5028783;28;20033;-81
2023/07/12 00:17:30;;;;;;;4.55;1.98;;;;;;;18.84;91.40;100805.63;5029600;28;20029;-81
2023/07/12 00:19:56;;;;;;;5.20;2.20;;;;;;;18.82;91.01;100813.81;5029966;28;20052;-80
2023/07/12 00:22:23;;;;;;;4.50;2.20;;;;;;;18.75;92.48;100826.94;5028037;28;20025;-79
2023/07/12 00:24:48;;;;;;;4.50;1.92;;;;;;;18.81;91.91;100832.59;5017936;28;20030;-80
2023/07/12 00:27:14;;;;;;;3.65;2.20;;;;;;;18.70;92.72;100821.28;5029906;28;20029;-80
2023/07/12 00:29:40;;;;;;;4.53;2.30;;;;;;;18.76;92.31;100828.59;5029139;28;20025;-80
2023/07/12 00:32:09;;;;;;;4.97;2.50;;;;;;;18.75;92.33;100829.59;5029855;28;20851;-80
2023/07/12 00:34:35;;;;;;;4.10;2.40;;;;;;;18.71;92.97;100838.94;5031315;28;20037;-79
2023/07/12 00:37:00;;;;;;;3.78;2.55;;;;;;;18.67;93.40;100842.94;5029302;28;20465;-71
2023/07/12 00:39:25;;;;;;;7.20;3.30;;;;;;;18.62;92.78;100845.28;5025091;28;20076;-80
2023/07/12 00:42:19;;;;;;;4.55;2.97;;;;;;;18.64;92.09;100853.94;5029447;28;20017;-80
2023/07/12 00:44:50;;;;;;;7.75;2.90;;;;;;;18.56;91.09;100861.91;5030024;28;20025;-80
2023/07/12 00:47:17;;;;;;;6.85;2.90;;;;;;;18.57;91.00;100847.56;5030818;28;20048;-80
2023/07/12 00:49:46;;;;;;;5.78;2.70;;;;;;;18.48;91.20;100857.41;5037539;28;20013;-80
2023/07/12 00:52:13;;;;;;;10.05;3.45;;;;;;;18.47;91.00;100858.41;5049644;28;20028;-72
2023/07/12 00:55:00;;;;;;;8.13;3.20;;;;;;;18.53;90.11;100867.56;5039196;28;20029;-72
2023/07/12 00:57:28;;;;;;;7.57;3.08;;;;;;;18.47;90.67;100855.72;5031313;28;20704;-80
2023/07/12 00:59:58;;;;;;;8.25;3.05;;;;;;;18.46;89.81;100869.22;5029033;28;20026;-80
2023/07/12 01:02:24;;;;;;;6.40;3.38;;;;;;;18.42;89.93;100876.72;5029075;28;20025;-80
2023/07/12 01:04:53;;;;;;;5.00;3.20;;;;;;;18.45;90.35;100888.88;5031212;28;20029;-80
2023/07/12 01:07:20;;;;;;;9.38;3.70;;;;;;;18.36;90.81;100879.16;5035303;28;20021;-80
2023/07/12 01:09:46;;;;;;;4.78;3.40;;;;;;;18.35;91.04;100901.47;5028937;28;20032;-80
2023/07/12 01:12:11;;;;;;;8.55;3.70;;;;;;;18.31;91.16;100879.66;5028861;28;20029;-80
2023/07/12 01:14:39;;;;;;;6.95;3.50;;;;;;;18.27;90.95;100826.88;5044882;28;20489;-80
2023/07/12 01:17:06;;;;;;;8.38;3.60;;;;;;;18.25;91.25;100839.53;5029139;28;20029;-72
2023/07/12 01:19:33;;;;;;;8.07;3.90;;;;;;;18.23;90.66;100847.69;5023354;28;20029;-72
2023/07/12 01:21:59;;;;;;;6.40;3.70;;;;;;;18.17;90.80;100835.84;5028100;28;20025;-80
2023/07/12 01:24:26;;;;;;;6.35;3.65;;;;;;;18.15;91.02;100843.16;5028901;28;20049;-71
2023/07/12 01:26:57;;;;;;;8.32;3.53;;;;;;;18.19;91.21;100850.84;5026813;28;20489;-71
2023/07/12 01:29:23;;;;;;;8.40;4.05;;;;;;;18.19;91.64;100854.34;5029132;28;20021;-72
2023/07/12 01:31:49;;;;;;;9.32;3.83;;;;;;;18.08;92.85;100852.81;5029346;28;20055;-72
2023/07/12 01:34:16;;;;;;;9.00;4.13;;;;;;;18.05;95.29;100826.50;5028862;28;20487;-79
2023/07/12 01:36:43;;;;;;;7.38;3.42;;;;;;;17.96;96.27;100838.09;5023621;28;20025;-79
2023/07/12 01:39:12;;;;;;;6.35;3.53;;;;;;;17.97;98.01;100850.41;5028351;28;20025;-80
2023/07/12 01:41:37;;;;;;;6.20;3.60;;;;;;;17.86;96.28;100853.38;5061601;28;20021;-80
2023/07/12 01:44:04;;;;;;;9.45;4.07;;;;;;;17.76;97.00;100820.75;5029554;28;20021;-81
2023/07/12 01:46:30;;;;;;;6.75;3.72;;;;;;;17.75;97.47;100811.09;5029482;28;20229;-80
2023/07/12 01:48:55;;;;;;;7.60;3.97;;;;;;;17.80;98.54;100798.13;5027061;28;20383;-79
2023/07/12 01:51:21;;;;;;;6.05;3.88;;;;;;;17.74;99.84;100801.44;5029645;28;20033;-80
2023/07/12 01:53:47;;;;;;;7.97;4.00;;;;;;;17.57;100.00;100810.31;5027169;28;20153;-80
2023/07/12 01:56:15;;;;;;;7.07;4.20;;;;;;;17.45;100.00;100812.41;5029347;28;20031;-80
2023/07/12 01:58:40;;;;;;;7.20;4.35;;;;;;;17.42;100.00;100802.94;5037654;28;20438;-81
2023/07/12 02:01:06;;;;;;;8.23;4.32;;;;;;;17.33;100.00;100803.06;5028938;28;20072;-80
2023/07/12 02:03:32;;;;;;;7.10;4.07;;;;;;;17.29;100.00;100807.03;5027912;28;20029;-80
2023/07/12 02:05:58;;;;;;;6.00;3.90;;;;;;;17.23;100.00;100824.44;5028352;28;20045;-80
2023/07/12 02:08:24;;;;;;;9.88;4.88;;;;;;;17.20;100.00;100792.81;5028565;28;20035;-80
2023/07/12 02:10:50;;;;;;;9.63;4.80;;;;;;;17.11;100.00;100762.69;5017898;28;20020;-80
2023/07/12 02:13:17;;;;;;;7.30;4.88;;;;;;;17.14;100.00;100773.03;5025519;28;20120;-81
2023/07/12 02:15:43;;;;;;;9.65;4.65;;;;;;;17.23;100.00;100841.25;5032306;28;20036;-80
2023/07/12 02:18:12;;;;;;;8.85;4.68;;;;;;;17.17;100.00;100851.63;5031660;28;20080;-80
2023/07/12 02:20:39;;;;;;;10.65;4.60;;;;;;;17.05;100.00;100852.88;5032826;28;20029;-80
2023/07/12 02:23:04;;;;;;;8.13;4.43;;;;;;;17.01;100.00;100862.16;5032125;28;20164;-79
2023/07/12 02:25:30;;;;;;;7.97;4.47;;;;;;;17.02;100.00;100856.69;5032167;28;20112;-80
2023/07/12 02:27:55;;;;;;;6.28;4.10;;;;;;;16.94;100.00;100851.31;5030307;28;20029;-81
2023/07/12 02:30:24;;;;;;;10.07;4.47;;;;;;;16.82;100.00;100821.50;5023037;28;20040;-81
2023/07/12 02:32:51;;;;;;;6.05;4.13;;;;;;;16.89;100.00;100833.19;5031413;28;20048;-81
2023/07/12 02:35:17;;;;;;;6.78;3.38;;;;;;;16.87;100.00;100835.16;5033321;28;20420;-72
2023/07/12 02:37:42;;;;;;;7.22;3.60;;;;;;;16.84;100.00;100830.16;5032355;28;20033;-71
2023/07/12 02:40:09;;;;;;;8.35;3.92;;;;;;;16.76;100.00;100821.25;5032912;28;20079;-71
2023/07/12 02:42:35;;;;;;;9.07;4.57;;;;;;;16.77;100.00;100845.03;5033387;28;20021;-71
2023/07/12 02:45:00;;;;;;;7.85;3.88;;;;;;;16.70;100.00;100838.66;5027654;28;20037;-79
2023/07/12 02:47:27;;;;;;;6.93;3.40;;;;;;;16.66;100.00;100829.31;5027610;28;20030;-72
2023/07/12 02:49:52;;;;;;;6.55;3.67;;;;;;;16.67;100.00;100831.00;5032309;28;20096;-72
2023/07/12 02:52:18;;;;;;;6.82;3.60;;;;;;;16.64;100.00;100839.25;5032179;28;20108;-79
2023/07/12 02:54:43;;;;;;;7.57;3.38;;;;;;;16.65;100.00;100840.06;5045082;28;20052;-80
2023/07/12 02:57:10;;;;;;;6.53;3.20;;;;;;;16.51;100.00;100844.13;5034783;28;20067;-81
2023/07/12 02:59:37;;;;;;;8.43;3.70;;;;;;;16.51;100.00;100836.97;5032634;28;20363;-79
2023/07/12 03:02:03;;;;;;;5.35;3.10;;;;;;;16.50;100.00;100837.13;5025074;28;20033;-79
2023/07/12 03:04:28;;;;;;;4.75;3.38;;;;;;;16.49;100.00;100841.63;5031465;28;20037;-81
2023/07/12 03:06:54;;;;;;;5.57;3.20;;;;;;;16.52;100.00;100851.09;5031047;28;20033;-80
2023/07/12 03:09:20;;;;;;;6.90;3.15;;;;;;;16.51;100.00;100852.09;5030221;28;20691;-80
2023/07/12 03:11:46;;;;;;;6.20;3.00;;;;;;;16.46;100.00;100851.72;5031679;28;20028;-72
2023/07/12 03:14:17;;;;;;;4.53;3.17;;;;;;;16.42;100.00;100848.53;5030927;28;20460;-72
2023/07/12 03:16:43;;;;;;;7.28;3.83;;;;;;;16.43;100.00;100859.97;5031657;28;20033;-81
2023/07/12 03:19:08;;;;;;;6.00;3.25;;;;;;;16.33;100.00;100853.88;5025222;28;20091;-80
2023/07/12 03:21:33;;;;;;;6.72;3.30;;;;;;;16.35;100.00;100854.56;5028124;28;20052;-80
2023/07/12 03:24:00;;;;;;;5.40;3.08;;;;;;;16.33;100.00;100848.56;5026490;28;20080;-80
2023/07/12 03:26:26;;;;;;;6.38;3.00;;;;;;;16.32;100.00;100849.56;5010474;28;20390;-79
2023/07/12 03:28:52;;;;;;;6.20;3.00;;;;;;;16.26;100.00;100854.47;5011760;28;20026;-80
2023/07/12 03:31:17;;;;;;;5.97;2.80;;;;;;;16.23;100.00;100862.75;5011615;28;20033;-80
2023/07/12 03:33:45;;;;;;;6.13;3.28;;;;;;;16.22;100.00;100863.72;5022335;28;20375;-80
2023/07/12 03:36:12;;;;;;;6.32;3.45;;;;;;;16.20;100.00;100871.00;5017828;28;20033;-80
2023/07/12 03:38:39;;;;;;;6.38;3.17;;;;;;;16.18;100.00;100880.94;5012961;28;20450;-82
2023/07/12 03:41:10;;;;;;;6.35;3.28;;;;;;;16.19;100.00;100877.31;5030153;28;20355;-80
2023/07/12 03:43:36;;;;;;;5.18;3.25;;;;;;;16.19;100.00;100882.63;5031868;28;20029;-80
2023/07/12 03:46:02;;;;;;;7.05;3.70;;;;;;;16.13;100.00;100885.03;5031602;28;20053;-81
2023/07/12 03:48:28;;;;;;;6.88;3.75;;;;;;;16.15;100.00;100883.06;5030960;28;20715;-80
2023/07/12 03:50:55;;;;;;;7.15;3.35;;;;;;;16.10;100.00;100878.22;5031122;28;20036;-72
2023/07/12 03:53:21;;;;;;;5.30;3.67;;;;;;;16.11;100.00;100887.00;5025100;28;20390;-80
2023/07/12 03:55:47;;;;;;;9.55;3.95;;;;;;;16.05;100.00;100880.47;5044381;28;20029;-72
2023/07/12 03:58:16;;;;;;;10.10;4.00;;;;;;;16.02;100.00;100880.78;5030829;28;20036;-81
2023/07/12 04:00:43;;;;;;;7.65;4.53;;;;;;;16.00;100.00;100888.00;5030636;28;20032;-81
2023/07/12 04:03:10;;;;;;;15.70;4.57;;;;;;;15.96;100.00;100891.94;5030719;28;20029;-80
2023/07/12 04:05:40;;;;;;;6.85;4.22;;;;;;;15.91;100.00;100904.81;5031860;28;20032;-80
2023/07/12 04:08:07;;;;;;;8.63;4.50;;;;;;;15.90;100.00;100892.53;5031271;28;20044;-80
2023/07/12 04:10:34;;;;;;;7.90;4.65;;;;;;;15.87;100.00;100892.84;5027745;28;20075;-79
2023/07/12 04:12:59;;;;;;;6.15;4.03;;;;;;;15.92;100.00;100895.88;5011461;28;20060;-80
2023/07/12 04:15:25;;;;;;;9.93;4.68;;;;;;;15.97;100.00;100898.94;5019781;28;20428;-80
2023/07/12 04:17:51;;;;;;;8.68;4.40;;;;;;;15.90;100.00;100895.19;5029949;28;20021;-79
2023/07/12 04:20:16;;;;;;;7.70;4.18;;;;;;;15.89;100.00;100906.78;5030317;28;20033;-81
2023/07/12 04:22:42;;;;;;;9.13;5.07;;;;;;;15.86;100.00;100901.78;5028488;28;20033;-79
2023/07/12 04:25:10;;;;;;;11.40;4.43;;;;;;;15.86;100.00;100907.09;5029385;28;20028;-80
2023/07/12 04:27:37;;;;;;;10.98;4.70;;;;;;;15.90;100.00;100903.16;5029224;28;20017;-82
2023/07/12 04:30:04;;;;;;;7.20;4.07;;;;;;;15.87;100.00;100898.97;5023726;28;20033;-80
2023/07/12 04:32:29;;;;;;;9.55;4.22;;;;;;;15.89;100.00;100896.19;5030020;28;20079;-72
2023/07/12 04:34:55;;;;;;;8.32;4.30;;;;;;;15.92;100.00;100895.88;5030196;28;20061;-71
2023/07/12 04:37:21;;;;;;;12.13;3.97;;;;;;;15.94;100.00;100904.53;5027502;28;20021;-71
2023/07/12 04:39:48;;;;;;;7.35;3.40;;;;;;;16.00;100.00;100906.59;5028971;28;20036;-80
2023/07/12 04:42:14;;;;;;;7.55;3.50;;;;;;;16.02;100.00;100899.34;5029897;28;20091;-79
2023/07/12 04:44:39;;;;;;;7.10;3.15;;;;;;;15.99;100.00;100908.41;5026978;28;20037;-72
2023/07/12 04:47:08;;;;;;;8.35;3.70;;;;;;;15.98;100.00;100909.41;5027315;28;20477;-80
2023/07/12 04:49:34;;;;;;;8.63;3.70;;;;;;;16.00;100.00;100893.31;5030572;28;20061;-80
2023/07/12 04:51:59;;;;;;;9.40;3.25;;;;;;;15.95;100.00;100908.84;5029670;28;20117;-81
2023/07/12 04:54:25;;;;;;;10.27;3.53;;;;;;;15.93;100.00;100902.88;5039738;28;20039;-80
2023/07/12 04:56:50;;;;;;;7.88;3.55;;;;;;;15.95;100.00;100900.91;5033417;28;20036;-79
2023/07/12 04:59:16;;;;;;;7.55;3.60;;;;;;;16.01;100.00;100895.03;5029813;28;20040;-79
2023/07/12 05:01:42;;;;;;;8.82;3.55;;;;;;;16.01;100.00;100908.28;5023728;28;20109;-79
2023/07/12 05:04:10;;;;;;;7.15;3.00;;;;;;;16.05;100.00;100907.00;5010657;28;20026;-71
2023/07/12 05:06:35;;;;;;;7.18;3.20;;;;;;;16.08;100.00;100908.53;5009967;28;20101;-79
2023/07/12 05:09:00;;;;;;;8.93;3.75;;;;;;;16.07;100.00;100905.03;5008947;28;20602;-80
2023/07/12 05:11:26;;;;;;;8.60;3.50;;;;;;;16.12;100.00;100913.41;5025996;28;20053;-80
2023/07/12 05:13:55;;;;;;;6.57;3.10;;;;;;;16.12;100.00;100918.72;5029023;28;20115;-71
2023/07/12 05:16:20;;;;;;;9.18;3.20;;;;;;;16.22;100.00;100924.78;5029020;28;20045;-80
2023/07/12 05:18:47;;;;;;;10.10;3.60;;;;;;;16.30;100.00;100926.72;5020319;28;20018;-80
2023/07/12 05:21:12;;;;;;;8.02;3.67;;;;;;;16.34;100.00;100927.25;5026458;28;20116;-80
2023/07/12 05:23:39;;;;;;;13.15;3.83;;;;;;;16.36;100.00;100925.28;5029496;28;20549;-80
2023/07/12 05:26:05;;;;;;;8.95;3.83;;;;;;;16.38;100.00;100933.94;5028673;28;20018;-80
2023/07/12 05:28:31;;;;;;;9.38;3.40;;;;;;;16.38;100.00;100936.59;5028543;28;20029;-79
2023/07/12 05:30:56;;;;;;;13.30;3.53;;;;;;;16.44;100.00;100936.84;5024145;28;20026;-80
2023/07/12 05:33:22;;;;;;;9.73;3.83;;;;;;;16.43;100.00;100932.53;5008979;28;20605;-72
2023/07/12 05:35:47;;;;;;;8.60;3.78;;;;;;;16.46;100.00;100926.91;5010105;28;20036;-72
2023/07/12 05:38:12;;;;;;;8.43;3.70;;;;;;;16.45;100.00;100940.34;5017586;28;20029;-81
2023/07/12 05:40:38;;;;;;;9.40;3.40;;;;;;;16.45;100.00;100932.38;5045162;28;20016;-81
2023/07/12 05:43:04;;;;;;;9.40;3.70;;;;;;;16.44;100.00;100939.50;5027744;28;20075;-80
2023/07/12 05:45:29;;;;;;;11.07;3.75;;;;;;;16.44;100.00;100938.66;5028680;28;20148;-80
2023/07/12 05:47:54;;;;;;;10.52;3.90;;;;;;;16.45;100.00;100937.69;5028014;28;20040;-72
2023/07/12 05:50:21;;;;;;;8.40;3.10;;;;;;;16.49;100.00;100941.72;5029044;28;20036;-80
2023/07/12 05:52:47;;;;;;;10.15;3.38;;;;;;;16.56;100.00;100945.44;5013506;28;20091;-80
2023/07/12 05:55:17;;;;;;;9.40;3.40;;;;;;;16.54;100.00;100945.59;5038386;28;20080;-81
2023/07/12 05:57:43;;;;;;;8.30;3.33;;;;;;;16.59;100.00;100938.00;5035773;28;20025;-80
2023/07/12 06:00:10;;;;;;;7.70;3.38;;;;;;;16.63;100.00;100946.50;5028991;28;20481;-81
2023/07/12 06:02:36;;;;;;;8.85;3.40;;;;;;;16.63;100.00;100957.13;5028615;28;20044;-81
2023/07/12 06:05:04;;;;;;;10.38;3.90;;;;;;;16.63;100.00;100959.78;5028963;28;20489;-73
2023/07/12 06:07:30;;;;;;;10.13;3.95;;;;;;;16.65;100.00;100957.81;5031396;28;20025;-80
2023/07/12 06:09:56;;;;;;;10.68;3.65;;;;;;;16.72;100.00;100953.59;5033764;28;20033;-80
2023/07/12 06:12:21;;;;;;;9.10;3.75;;;;;;;16.75;100.00;100958.59;5026059;28;20527;-81
2023/07/12 06:14:48;;;;;;;11.63;4.07;;;;;;;16.79;100.00;100959.13;5028447;28;20544;-72
2023/07/12 06:17:13;;;;;;;7.80;3.33;;;;;;;16.91;100.00;100960.59;5028197;28;20255;-81
2023/07/12 06:19:39;;;;;;;10.95;3.75;;;;;;;16.92;100.00;100968.44;5027275;28;20030;-71
2023/07/12 06:22:05;;;;;;;11.95;4.40;;;;;;;16.97;100.00;100962.66;5027002;28;20095;-73
2023/07/12 06:24:30;;;;;;;12.48;4.07;;;;;;;17.04;100.00;100958.41;5021495;28;20036;-72
2023/07/12 06:26:55;;;;;;;9.50;3.60;;;;;;;17.12;100.00;100954.97;5029203;28;20040;-80
2023/07/12 06:29:21;;;;;;;10.15;3.65;;;;;;;17.18;100.00;100963.16;5026775;28;20017;-80
2023/07/12 06:31:48;;;;;;;9.00;3.75;;;;;;;17.24;100.00;100969.72;5028516;28;20022;-80
2023/07/12 06:34:13;;;;;;;9.40;3.65;;;;;;;17.38;100.00;100973.66;5029278;28;20030;-77
2023/07/12 06:36:39;;;;;;;10.15;3.30;;;;;;;17.36;98.62;100981.78;5028681;28;20612;-77
2023/07/12 06:39:04;;;;;;;6.78;3.40;;;;;;;17.41;99.50;100987.47;5023255;28;20117;-77
2023/07/12 06:41:31;;;;;;;9.40;3.47;;;;;;;17.37;98.33;100991.44;5019800;28;20445;-78
2023/07/12 06:43:57;;;;;;;9.20;3.72;;;;;;;17.40;99.30;100998.25;5026785;28;20517;-77
2023/07/12 06:46:23;;;;;;;8.77;3.38;;;;;;;17.44;98.39;101002.28;5027114;28;20037;-77
2023/07/12 06:48:49;;;;;;;11.27;3.55;;;;;;;17.50;96.57;101006.97;5028418;28;20064;-77
2023/07/12 06:51:15;;;;;;;8.50;3.20;;;;;;;17.58;96.62;101006.22;5027750;28;20064;-76
2023/07/12 06:53:40;;;;;;;7.85;3.35;;;;;;;17.62;96.52;101004.94;5032704;28;20025;-76
2023/07/12 06:56:06;;;;;;;9.57;3.03;;;;;;;17.70;96.05;101002.34;5043081;28;20473;-76
2023/07/12 06:58:32;;;;;;;9.95;3.10;;;;;;;17.71;95.67;101015.50;5018589;28;20048;-80
2023/07/12 07:00:57;;;;;;;8.15;3.10;;;;;;;17.75;95.70;101016.88;5023653;28;20029;-80
2023/07/12 07:03:23;;;;;;;7.65;2.88;;;;;;;17.75;94.73;101021.34;5032504;28;20074;-80
2023/07/12 07:05:48;;;;;;;9.68;2.95;;;;;;;17.76;94.50;101023.03;5027159;28;20033;-79
2023/07/12 07:08:17;;;;;;;9.35;3.20;;;;;;;17.74;95.07;101030.31;5026526;28;20034;-80
2023/07/12 07:10:44;;;;;;;8.80;3.15;;;;;;;17.83;93.82;101029.38;5031840;28;20036;-80
2023/07/12 07:13:10;;;;;;;10.15;3.42;;;;;;;17.90;94.28;101019.78;5031074;28;20029;-80
2023/07/12 07:15:35;;;;;;;10.73;3.60;;;;;;;18.00;92.09;101022.31;5032669;28;20536;-72
2023/07/12 07:18:01;;;;;;;8.38;3.47;;;;;;;18.04;91.75;101021.88;5026768;28;20553;-72
2023/07/12 07:20:27;;;;;;;11.80;3.20;;;;;;;18.08;91.92;101033.06;5022756;28;20022;-71
2023/07/12 07:22:53;;;;;;;7.90;3.13;;;;;;;18.15;91.29;101034.91;5047596;28;20041;-71
2023/07/12 07:25:18;;;;;;;8.85;3.40;;;;;;;18.23;90.43;101035.97;5032360;28;20037;-71
2023/07/12 07:27:46;;;;;;;8.45;3.20;;;;;;;18.28;89.89;101049.63;5021512;28;20028;-79
2023/07/12 07:30:13;;;;;;;12.57;3.25;;;;;;;18.34;88.92;101041.00;5030411;28;20017;-80
2023/07/12 07:32:39;;;;;;;9.88;3.58;;;;;;;18.40;88.94;101048.34;5029593;28;20033;-80
2023/07/12 07:35:06;;;;;;;9.85;3.03;;;;;;;18.38;88.05;101058.34;5031489;28;20482;-80
2023/07/12 07:37:32;;;;;;;10.88;3.72;;;;;;;18.33;87.85;101055.31;5031554;28;20029;-80
2023/07/12 07:39:57;;;;;;;10.38;3.17;;;;;;;18.42;88.20;101057.06;5030525;28;20033;-81
2023/07/12 07:42:22;;;;;;;9.82;3.22;;;;;;;18.52;85.62;101059.59;5030806;28;20509;-81
2023/07/12 07:44:48;;;;;;;8.77;3.33;;;;;;;18.65;86.11;101055.50;5029324;28;20029;-80
2023/07/12 07:47:14;;;;;;;9.65;2.85;;;;;;;18.84;85.91;101057.09;5030224;28;20033;-81
2023/07/12 07:49:39;;;;;;;9.38;2.83;;;;;;;19.00;84.75;101051.78;5030979;28;20043;-80
2023/07/12 07:52:09;;;;;;;8.77;3.08;;;;;;;19.23;86.35;101057.34;5029697;28;20528;-81
2023/07/12 07:54:34;;;;;;;9.90;3.00;;;;;;;19.17;82.42;101055.31;5035435;28;20044;-81
2023/07/12 07:56:59;;;;;;;10.77;3.30;;;;;;;19.07;81.06;101062.63;5047454;28;20013;-81
2023/07/12 07:59:25;;;;;;;9.55;3.22;;;;;;;19.04;82.29;101069.13;5035234;28;20077;-80
2023/07/12 08:01:50;;;;;;;11.35;3.20;;;;;;;19.02;81.44;101075.63;5027313;28;20017;-80
2023/07/12 08:04:15;;;;;;;7.85;2.90;;;;;;;18.92;81.66;101074.94;5029626;28;20437;-81
2023/07/12 08:06:47;;;;;;;9.65;3.50;;;;;;;18.90;82.79;101076.94;5031843;28;20381;-80
2023/07/12 08:09:14;;;;;;;9.65;3.60;;;;;;;18.88;82.47;101084.25;5025619;28;20065;-80
2023/07/12 08:11:39;;;;;;;10.77;3.38;;;;;;;18.88;82.10;101086.94;5024535;28;20079;-80
2023/07/12 08:14:05;;;;;;;9.68;3.38;;;;;;;18.86;81.72;101081.75;5031505;28;20033;-80
2023/07/12 08:16:36;;;;;;;10.90;3.25;;;;;;;18.82;82.03;101085.75;5030955;28;20026;-80
2023/07/12 08:19:04;;;;;;;8.65;3.03;;;;;;;18.75;81.56;101084.69;5030002;28;20941;-80
2023/07/12 08:21:31;;;;;;;8.50;3.53;;;;;;;18.78;82.45;101084.38;5031159;28;20029;-80
2023/07/12 08:23:57;;;;;;;10.40;3.22;;;;;;;18.79;82.58;101088.69;5027439;28;20033;-80
2023/07/12 08:26:22;;;;;;;10.35;3.50;;;;;;;18.75;82.42;101084.69;5025821;28;21052;-80
2023/07/12 08:28:48;;;;;;;12.00;3.50;;;;;;;18.77;82.55;101088.03;5061053;28;20037;-81
2023/07/12 08:31:16;;;;;;;10.65;4.00;;;;;;;18.82;82.18;101100.91;5030923;28;20029;-80
2023/07/12 08:33:43;;;;;;;12.15;4.07;;;;;;;18.92;81.22;101093.59;5031097;28;20030;-80
2023/07/12 08:36:10;;;;;;;10.50;3.55;;;;;;;19.01;80.93;101095.28;5029820;28;20033;-80
2023/07/12 08:38:37;;;;;;;8.00;3.28;;;;;;;19.08;81.32;101096.31;5030953;28;20474;-80
2023/07/12 08:41:13;;;;;;;9.40;3.40;;;;;;;19.20;80.70;101103.00;5029940;28;20025;-81
2023/07/12 08:43:39;;;;;;;9.85;3.50;;;;;;;19.28;80.55;101096.88;5029938;28;20080;-81
2023/07/12 08:46:17;;;;;;;10.18;3.72;;;;;;;19.28;79.28;101108.38;5029939;28;20049;-80
2023/07/12 08:48:43;;;;;;;11.23;3.95;;;;;;;19.30;79.07;101106.38;5030373;28;20029;-82
2023/07/12 08:51:27;;;;;;;8.82;3.50;;;;;;;19.29;79.68;101103.88;5029068;28;20059;-81
2023/07/12 08:53:54;;;;;;;10.10;3.60;;;;;;;19.24;78.98;101112.38;5030023;28;20500;-80
2023/07/12 08:56:21;;;;;;;7.97;3.42;;;;;;;19.28;79.65;101108.38;5021176;28;20612;-80
2023/07/12 08:58:50;;;;;;;9.02;3.17;;;;;;;19.34;80.24;101107.72;5028110;28;20504;-80
2023/07/12 09:01:49;;;;;;;15.13;3.65;;;;;;;19.48;80.83;101105.41;5029898;28;20106;-80
2023/07/12 09:04:22;;;;;;;11.82;3.50;;;;;;;19.42;77.69;101117.56;5028993;28;20025;-80
2023/07/12 09:06:48;;;;;;;8.15;3.20;;;;;;;19.45;75.83;101103.91;5029243;28;20455;-80
2023/07/12 09:09:14;;;;;;;9.20;3.40;;;;;;;19.71;77.17;101109.13;5041369;28;20080;-80
2023/07/12 09:11:39;;;;;;;10.27;3.58;;;;;;;19.97;76.83;101109.78;5047752;28;20028;-80
2023/07/12 09:14:05;;;;;;;6.65;2.72;;;;;;;20.08;73.91;101121.16;5048637;28;20041;-81
2023/07/12 09:16:34;;;;;;;8.55;2.78;;;;;;;20.18;74.12;101111.09;5048875;28;20024;-81
2023/07/12 09:19:12;;;;;;;6.72;3.00;;;;;;;20.31;74.06;101116.75;5049271;28;20037;-80
2023/07/12 09:21:38;;;;;;;8.07;3.00;;;;;;;20.38;72.34;101111.56;5049048;28;20027;-81
2023/07/12 09:24:19;;;;;;;8.32;3.22;;;;;;;20.63;73.53;101105.16;5048360;28;20158;-81
2023/07/12 09:26:44;;;;;;;8.00;3.33;;;;;;;21.02;71.28;101104.34;5049782;28;20031;-81
2023/07/12 09:29:21;;;;;;;9.00;3.30;;;;;;;20.93;68.50;101112.41;5033378;28;20029;-80
2023/07/12 09:31:47;;;;;;;10.05;3.38;;;;;;;20.73;69.55;101111.16;5029750;28;20104;-80
2023/07/12 09:34:25;;;;;;;7.55;2.80;;;;;;;20.82;70.36;101109.28;5028979;28;20037;-80
2023/07/12 09:36:58;;;;;;;10.43;3.75;;;;;;;20.93;69.24;101091.00;5029912;28;20029;-80
2023/07/12 09:39:25;;;;;;;6.68;2.90;;;;;;;20.87;69.93;101099.75;5044338;28;20909;-81
2023/07/12 09:41:55;;;;;;;11.63;3.22;;;;;;;20.85;70.50;101099.09;5029446;28;20052;-81
2023/07/12 09:44:21;;;;;;;9.27;2.95;;;;;;;20.85;70.32;101108.94;5029419;28;20026;-80
2023/07/12 09:47:13;;;;;;;12.20;3.20;;;;;;;21.30;70.33;101097.53;5029500;28;20550;-81
2023/07/12 09:49:47;;;;;;;7.23;3.00;;;;;;;21.76;67.51;101095.69;5029873;28;20037;-80
2023/07/12 09:52:19;;;;;;;6.45;2.67;;;;;;;22.30;66.93;101092.84;5028778;28;20078;-80
2023/07/12 09:54:45;;;;;;;;;;;;;;;22.55;68.08;101088.06;5026131;28;20079;-80
2023/07/12 09:57:48;;;;;;;6.97;2.63;;;;;;;22.60;63.84;101079.44;5028907;28;19909;-80
2023/07/12 10:00:23;;;;;;;9.27;2.88;;;;;;;22.56;62.14;101078.97;5027348;28;20041;-81
2023/07/12 10:03:02;;;;;;;6.68;2.53;;;;;;;22.46;63.86;101073.06;5060999;28;20017;-80
2023/07/12 10:05:28;;;;;;;7.53;2.13;;;;;;;22.54;62.00;101069.47;5028500;28;20098;-81
2023/07/12 10:08:02;;;;;;;8.00;2.17;;;;;;;22.66;59.81;101067.97;5028104;28;20029;-79
2023/07/12 10:10:38;;;;;;;6.28;2.28;;;;;;;22.51;60.90;101074.19;5028389;28;20034;-80
2023/07/12 10:13:31;;;;;;;7.65;2.08;;;;;;;22.49;62.03;101073.53;5029151;28;20446;-80
2023/07/12 10:16:00;;;;;;;8.73;2.60;;;;;;;22.44;61.25;101070.59;5014057;28;20455;-80
2023/07/12 10:18:29;;;;;;;10.15;2.45;;;;;;;22.21;60.58;101069.81;5025190;28;20104;-81
2023/07/12 10:20:56;;;;;;;9.35;2.33;;;;;;;22.27;61.86;101063.72;5030152;28;20018;-81
2023/07/12 10:23:29;;;;;;;5.43;1.98;;;;;;;22.58;59.74;101066.22;5028568;28;20147;-80
2023/07/12 10:25:57;;;;;;;9.70;2.05;;;;;;;22.86;57.87;101062.88;5029232;28;20100;-80
2023/07/12 10:28:32;;;;;;;8.98;2.38;;;;;;;23.22;58.65;101081.69;5029476;28;20436;-80
2023/07/12 10:31:02;;;;;;;5.57;2.10;;;;;;;22.93;57.86;101075.34;5029589;28;20029;-81
2023/07/12 10:33:35;;;;;;;8.68;2.65;;;;;;;23.07;58.23;101082.53;5021297;28;20537;-81
2023/07/12 10:36:06;;;;;;;6.80;2.05;;;;;;;23.54;58.02;101075.78;5032511;28;20025;-80
2023/07/12 10:38:32;;;;;;;7.53;2.50;;;;;;;23.77;56.77;101072.94;5034226;28;20409;-81
2023/07/12 10:41:11;;;;;;;7.93;2.05;;;;;;;23.85;57.20;101082.69;5034871;28;20048;-80
2023/07/12 10:43:45;;;;;;;5.55;2.42;;;;;;;23.81;55.64;101078.75;5034716;28;20017;-81
2023/07/12 10:46:22;;;;;;;9.13;2.40;;;;;;;23.64;55.39;101083.56;5032268;28;20046;-82
2023/07/12 10:48:50;;;;;;;5.47;1.70;;;;;;;23.63;55.88;101074.69;5031805;28;20049;-81
2023/07/12 10:51:39;;;;;;;11.63;2.15;;;;;;;23.69;57.96;101087.34;5016070;28;20021;-80
2023/07/12 10:54:25;;;;;;;7.13;2.38;;;;;;;23.57;56.36;101078.09;5032384;28;20025;-81
2023/07/12 10:56:53;;;;;;;5.97;1.80;;;;;;;23.77;55.85;101075.63;5027194;28;20465;-80
2023/07/12 10:59:30;;;;;;;10.95;2.20;;;;;;;23.94;56.47;101081.53;5032282;28;20037;-81
2023/07/12 11:02:16;;;;;;;10.57;2.30;;;;;;;24.08;53.80;101077.94;5032192;28;20025;-81
2023/07/12 11:04:47;;;;;;;6.65;1.95;;;;;;;24.21;52.14;101079.88;5031042;28;20009;-75
2023/07/12 11:07:15;;;;;;;6.43;1.95;;;;;;;23.94;51.06;101084.22;5012082;28;20347;-74
2023/07/12 11:09:47;;;;;;;7.18;2.17;;;;;;;23.52;52.69;101080.50;5103944;23;20059;-81
2023/07/12 11:12:15;;;;;;;6.47;2.08;;;;;;;23.61;52.99;101081.25;4942105;28;20135;-81
2023/07/12 11:14:41;;;;;;;8.82;2.08;;;;;;;23.96;53.65;101084.84;4959457;28;20027;-82
2023/07/12 11:17:06;;;;;;;6.47;2.00;;;;;;;24.15;52.22;101075.28;4970923;28;20045;-80
2023/07/12 11:19:44;;;;;;;8.48;2.50;;;;;;;24.37;52.16;101082.25;4956940;28;20031;-81
2023/07/12 11:22:17;;;;;;;6.20;1.80;;;;;;;24.45;51.98;101081.28;4994415;28;20029;-81